Terminal Aerodrome Forecast
Issued by NWS Atlanta, GA

Home | Current Version | Previous Version | Text Only | Print | Product List | Glossary On
Versions: 1 2 3 4 5 6 7 8 9 10 11 12 13 14 15 16 17 18 19 20 21 22 23 24 25 26 27 28 29 30 31 32 33 34 35 36 37
000
FTUS42 KFFC 051405 AAA
TAFATL
TAF AMD
KATL 051405Z 0514/0618 08011G18KT P6SM SCT040
     FM051700 08011G18KT P6SM BKN050
      TEMPO 0519/0522 4SM -TSRA BR BKN035CB
     FM060000 08006KT P6SM BKN100
     FM061000 07005KT P6SM SCT015 BKN100
     FM061400 07005KT P6SM SCT025=

USA.gov is the U.S. government's official web portal to all federal, state and local government web resources and services.